createdAt,value
2022-12-25T00:01:50.502Z,33.77
2022-12-25T00:04:18.586Z,36.00
2022-12-25T00:06:46.596Z,40.43
2022-12-25T00:09:15.968Z,39.40
2022-12-25T00:11:44.160Z,39.60
2022-12-25T00:14:12.272Z,36.83
2022-12-25T00:16:40.390Z,41.70
2022-12-25T00:19:08.431Z,38.03
2022-12-25T00:21:36.915Z,36.20
2022-12-25T00:24:05.352Z,34.50
2022-12-25T00:26:34.699Z,32.43
2022-12-25T00:29:02.688Z,38.37
2022-12-25T00:31:30.777Z,39.17
2022-12-25T00:33:59.028Z,37.17
2022-12-25T00:36:27.027Z,42.67
2022-12-25T00:38:55.026Z,40.60
2022-12-25T00:41:38.307Z,36.60
2022-12-25T00:44:08.009Z,43.63
2022-12-25T00:46:36.022Z,34.40
2022-12-25T00:49:04.693Z,40.17
2022-12-25T00:51:33.032Z,32.03
2022-12-25T00:54:01.066Z,33.37
2022-12-25T00:56:29.187Z,34.47
2022-12-25T00:58:57.376Z,35.57
2022-12-25T01:01:26.822Z,29.87
2022-12-25T01:03:54.858Z,27.23
2022-12-25T01:06:22.879Z,33.07
2022-12-25T01:09:07.415Z,32.13
2022-12-25T01:11:35.379Z,33.50
2022-12-25T01:14:03.445Z,30.70
2022-12-25T01:16:32.793Z,31.07
2022-12-25T01:19:00.828Z,34.30
2022-12-25T01:21:29.047Z,32.33
2022-12-25T01:23:57.625Z,35.50
2022-12-25T01:26:27.253Z,33.30
2022-12-25T01:28:55.407Z,39.70
2022-12-25T01:31:25.230Z,43.17
2022-12-25T01:33:54.601Z,39.43
2022-12-25T01:36:25.166Z,35.90
2022-12-25T01:38:53.992Z,40.23
2022-12-25T01:41:24.336Z,40.23
2022-12-25T01:44:02.675Z,46.37
2022-12-25T01:46:31.550Z,38.87
2022-12-25T01:49:04.447Z,40.90
2022-12-25T01:51:36.826Z,44.23
2022-12-25T01:54:09.557Z,38.03
2022-12-25T01:56:38.739Z,47.47
2022-12-25T01:59:08.939Z,43.10
2022-12-25T02:01:37.215Z,51.57
2022-12-25T02:04:14.277Z,45.90
2022-12-25T02:06:42.886Z,45.07
2022-12-25T02:09:11.022Z,35.57
2022-12-25T02:11:56.518Z,33.13
2022-12-25T02:14:25.062Z,30.20
2022-12-25T02:17:03.108Z,31.90
2022-12-25T02:19:51.180Z,34.27
2022-12-25T02:22:29.431Z,33.03
2022-12-25T02:25:14.319Z,31.90
2022-12-25T02:28:10.711Z,34.97
2022-12-25T02:30:42.344Z,37.53
2022-12-25T02:33:34.937Z,36.27
2022-12-25T02:36:08.490Z,36.07
2022-12-25T02:38:59.796Z,32.43
2022-12-25T02:41:28.276Z,36.97
2022-12-25T02:44:29.924Z,37.87
2022-12-25T02:47:15.769Z,40.83
2022-12-25T02:50:03.092Z,42.23
2022-12-25T02:52:50.036Z,39.23
2022-12-25T02:55:42.278Z,41.13
2022-12-25T02:58:31.469Z,44.93
2022-12-25T03:01:22.632Z,39.37
2022-12-25T03:04:12.206Z,43.20
2022-12-25T03:06:46.533Z,47.37
2022-12-25T03:09:37.071Z,42.10
2022-12-25T03:12:14.963Z,39.87
2022-12-25T03:15:00.697Z,43.43
2022-12-25T03:17:31.551Z,45.93
2022-12-25T03:20:17.411Z,43.63
2022-12-25T03:23:04.637Z,41.87
2022-12-25T03:25:49.926Z,44.20
2022-12-25T03:28:18.019Z,38.60
2022-12-25T03:31:12.153Z,44.53
2022-12-25T03:34:09.226Z,41.80
2022-12-25T03:36:47.213Z,43.00
2022-12-25T03:39:40.483Z,39.27
2022-12-25T03:42:27.130Z,44.53
2022-12-25T03:45:21.914Z,46.20
2022-12-25T03:48:10.268Z,48.43
2022-12-25T03:51:02.720Z,49.93
2022-12-25T03:53:52.118Z,44.13
2022-12-25T03:56:38.654Z,47.10
2022-12-25T03:59:24.470Z,50.27
2022-12-25T04:02:11.064Z,58.67
2022-12-25T04:04:57.277Z,50.77
2022-12-25T04:07:44.129Z,47.03
2022-12-25T04:10:29.507Z,41.50
2022-12-25T04:13:14.980Z,48.67
2022-12-25T04:16:00.695Z,44.07
2022-12-25T04:18:46.545Z,41.13
2022-12-25T04:21:32.020Z,42.53
2022-12-25T04:24:24.289Z,38.37
2022-12-25T04:27:10.165Z,43.53
2022-12-25T04:29:55.673Z,35.67
2022-12-25T04:32:41.087Z,39.27
2022-12-25T04:35:27.094Z,34.90
2022-12-25T04:37:55.129Z,36.90
2022-12-25T04:40:24.526Z,31.43
2022-12-25T04:42:52.757Z,37.63
2022-12-25T04:45:20.812Z,34.97
2022-12-25T04:47:48.782Z,33.70
2022-12-25T04:50:16.776Z,35.90
2022-12-25T04:52:44.804Z,29.17
2022-12-25T04:55:13.222Z,32.13
2022-12-25T04:57:42.576Z,33.17
2022-12-25T05:00:11.503Z,33.80
2022-12-25T05:02:39.603Z,35.57
2022-12-25T05:05:08.251Z,32.90
2022-12-25T05:07:36.249Z,29.73
2022-12-25T05:10:04.774Z,38.40
2022-12-25T05:12:32.731Z,37.77
2022-12-25T05:15:02.083Z,36.23
2022-12-25T05:17:30.109Z,30.10
2022-12-25T05:19:58.076Z,33.30
2022-12-25T05:22:26.084Z,33.70
2022-12-25T05:24:54.066Z,30.57
2022-12-25T05:27:22.282Z,32.23
2022-12-25T05:29:50.220Z,31.50
2022-12-25T05:32:19.547Z,29.67
2022-12-25T05:34:47.714Z,31.67
2022-12-25T05:37:15.690Z,29.00
2022-12-25T05:39:43.682Z,32.70
2022-12-25T05:42:11.651Z,31.43
2022-12-25T05:44:39.636Z,31.23
2022-12-25T05:47:07.647Z,31.30
2022-12-25T05:49:37.029Z,32.33
2022-12-25T05:52:05.377Z,32.87
2022-12-25T05:54:33.367Z,31.07
2022-12-25T05:57:01.424Z,30.67
2022-12-25T05:59:30.591Z,31.50
2022-12-25T06:01:58.792Z,30.90
2022-12-25T06:04:27.510Z,36.20
2022-12-25T06:06:56.846Z,32.63
2022-12-25T06:09:24.862Z,33.03
2022-12-25T06:11:52.905Z,29.80
2022-12-25T06:14:20.900Z,30.63
2022-12-25T06:16:52.235Z,33.10
2022-12-25T06:19:20.313Z,33.40
2022-12-25T06:21:48.978Z,32.53
2022-12-25T06:24:21.398Z,32.80
2022-12-25T06:26:50.001Z,35.70
2022-12-25T06:29:18.411Z,34.83
2022-12-25T06:31:46.475Z,33.37
2022-12-25T06:34:16.456Z,30.80
2022-12-25T06:36:44.523Z,30.97
2022-12-25T06:39:12.553Z,30.37
2022-12-25T06:41:41.912Z,29.77
2022-12-25T06:44:10.519Z,34.70
2022-12-25T06:46:38.498Z,30.07
2022-12-25T06:49:06.705Z,33.20
2022-12-25T06:51:35.010Z,30.17
2022-12-25T06:54:04.361Z,31.13
2022-12-25T06:56:33.138Z,33.47
2022-12-25T06:59:04.501Z,28.83
2022-12-25T07:01:35.657Z,27.47
2022-12-25T07:04:05.432Z,33.60
2022-12-25T07:06:33.665Z,28.30
2022-12-25T07:09:01.701Z,34.93
2022-12-25T07:11:29.683Z,31.53
2022-12-25T07:13:57.700Z,32.63
2022-12-25T07:16:27.081Z,34.23
2022-12-25T07:18:55.123Z,30.87
2022-12-25T07:21:23.172Z,32.37
2022-12-25T07:23:51.984Z,38.17
2022-12-25T07:26:20.019Z,34.03
2022-12-25T07:28:48.119Z,37.43
2022-12-25T07:31:18.607Z,38.70
2022-12-25T07:33:48.207Z,33.10
2022-12-25T07:36:16.592Z,34.87
2022-12-25T07:38:44.615Z,36.27
2022-12-25T07:41:13.910Z,40.03
2022-12-25T07:43:42.191Z,42.23
2022-12-25T07:46:10.421Z,48.30
2022-12-25T07:48:38.646Z,48.80
2022-12-25T07:51:11.287Z,49.70
2022-12-25T07:53:39.881Z,48.23
2022-12-25T07:56:11.916Z,48.67
2022-12-25T07:58:40.408Z,60.57
2022-12-25T08:01:09.877Z,50.90
2022-12-25T08:03:38.494Z,45.67
2022-12-25T08:06:10.672Z,43.70
2022-12-25T08:08:40.149Z,44.27
2022-12-25T08:11:09.549Z,41.20
2022-12-25T08:13:38.395Z,41.33
2022-12-25T08:16:09.023Z,40.90
2022-12-25T08:18:37.729Z,39.60
2022-12-25T08:21:09.264Z,42.70
2022-12-25T08:23:39.212Z,34.67
2022-12-25T08:26:08.275Z,33.07
2022-12-25T08:28:37.232Z,30.80
2022-12-25T08:31:10.086Z,39.43
2022-12-25T08:33:38.656Z,37.87
2022-12-25T08:36:10.007Z,37.33
2022-12-25T08:38:38.062Z,42.17
2022-12-25T08:41:06.548Z,36.17
2022-12-25T08:43:34.653Z,36.90
2022-12-25T08:46:02.753Z,39.53
2022-12-25T08:48:30.999Z,40.60
2022-12-25T08:50:59.043Z,43.67
2022-12-25T08:53:28.573Z,41.97
2022-12-25T08:56:00.987Z,37.17
2022-12-25T08:58:29.717Z,40.43
2022-12-25T09:00:58.101Z,39.47
2022-12-25T09:03:26.721Z,40.17
2022-12-25T09:05:57.292Z,43.50
2022-12-25T09:08:26.036Z,40.80
2022-12-25T09:10:55.399Z,44.67
2022-12-25T09:13:23.432Z,45.97
2022-12-25T09:15:51.454Z,50.07
2022-12-25T09:18:19.496Z,50.90
2022-12-25T09:20:47.491Z,47.63
2022-12-25T09:23:15.508Z,48.63
2022-12-25T09:25:43.464Z,46.10
2022-12-25T09:28:12.784Z,42.90
2022-12-25T09:30:40.843Z,44.33
2022-12-25T09:33:08.887Z,50.40
2022-12-25T09:35:36.923Z,50.13
2022-12-25T09:38:04.885Z,43.87
2022-12-25T09:40:33.720Z,48.07
2022-12-25T09:43:03.193Z,52.20
2022-12-25T09:45:37.453Z,53.57
2022-12-25T09:48:06.085Z,59.50
2022-12-25T09:50:43.463Z,49.77
2022-12-25T09:53:16.665Z,67.20
2022-12-25T09:55:53.181Z,69.30
2022-12-25T09:58:21.195Z,63.47
2022-12-25T10:00:58.471Z,58.30
2022-12-25T10:03:51.430Z,49.53
2022-12-25T10:06:23.080Z,54.83
2022-12-25T10:09:13.943Z,53.13
2022-12-25T10:11:56.983Z,45.43
2022-12-25T10:14:35.161Z,47.40
2022-12-25T10:17:23.294Z,46.10
2022-12-25T10:19:58.128Z,39.67
2022-12-25T10:22:37.042Z,37.70
2022-12-25T10:25:06.939Z,35.87
2022-12-25T10:27:38.559Z,31.10
2022-12-25T10:30:15.572Z,35.17
2022-12-25T10:32:46.507Z,40.73
2022-12-25T10:35:15.655Z,39.50
2022-12-25T10:37:45.551Z,31.40
2022-12-25T10:40:31.535Z,26.33
2022-12-25T10:43:05.458Z,29.77
2022-12-25T10:45:44.195Z,26.33
2022-12-25T10:48:21.310Z,25.97
2022-12-25T10:50:49.564Z,25.10
2022-12-25T10:53:23.946Z,31.87
2022-12-25T10:56:00.253Z,22.13
2022-12-25T10:58:28.842Z,26.67
2022-12-25T11:00:59.589Z,28.20
2022-12-25T11:03:31.946Z,36.10
2022-12-25T11:06:01.091Z,32.70
2022-12-25T11:08:31.832Z,29.17
2022-12-25T11:11:06.207Z,28.30
2022-12-25T11:13:37.360Z,25.20
2022-12-25T11:16:09.561Z,28.20
2022-12-25T11:18:47.260Z,28.97
2022-12-25T11:21:20.866Z,23.87
2022-12-25T11:23:51.826Z,26.97
2022-12-25T11:26:20.006Z,30.77
2022-12-25T11:28:51.422Z,24.20
2022-12-25T11:31:21.365Z,21.93
2022-12-25T11:33:55.009Z,24.40
2022-12-25T11:36:30.321Z,26.53
2022-12-25T11:39:02.480Z,26.60
2022-12-25T11:41:35.196Z,22.93
2022-12-25T11:44:06.049Z,27.27
2022-12-25T11:46:41.224Z,24.40
2022-12-25T11:49:15.669Z,27.80
2022-12-25T11:51:47.069Z,26.03
2022-12-25T11:54:21.677Z,23.70
2022-12-25T11:56:50.681Z,23.13
2022-12-25T11:59:24.148Z,28.40
2022-12-25T12:01:57.549Z,26.17
2022-12-25T12:04:33.759Z,24.90
2022-12-25T12:07:09.871Z,25.00
2022-12-25T12:09:46.856Z,23.17
2022-12-25T12:12:21.493Z,24.67
2022-12-25T12:14:56.811Z,27.10
2022-12-25T12:17:25.030Z,20.43
2022-12-25T12:19:54.444Z,23.80
2022-12-25T12:22:25.293Z,22.97
2022-12-25T12:24:57.262Z,24.83
2022-12-25T12:27:28.934Z,27.93
2022-12-25T12:29:59.494Z,25.47
2022-12-25T12:32:41.843Z,24.33
2022-12-25T12:35:18.166Z,21.30
2022-12-25T12:37:48.315Z,29.33
2022-12-25T12:40:27.960Z,25.23
2022-12-25T12:42:56.387Z,31.30
2022-12-25T12:45:27.975Z,25.07
2022-12-25T12:47:56.112Z,23.87
2022-12-25T12:50:37.564Z,20.80
2022-12-25T12:53:28.522Z,21.43
2022-12-25T12:55:56.971Z,24.23
2022-12-25T12:58:33.115Z,21.97
2022-12-25T13:01:17.104Z,18.40
2022-12-25T13:04:15.313Z,19.10
2022-12-25T13:06:50.324Z,19.07
2022-12-25T13:09:28.586Z,24.50
2022-12-25T13:11:56.796Z,16.60
2022-12-25T13:14:25.867Z,23.47
2022-12-25T13:16:55.247Z,21.70
2022-12-25T13:19:25.892Z,17.20
2022-12-25T13:21:57.227Z,17.00
2022-12-25T13:24:27.617Z,17.07
2022-12-25T13:26:56.115Z,18.17
2022-12-25T13:29:29.942Z,18.60
2022-12-25T13:31:59.055Z,18.00
2022-12-25T13:34:32.267Z,19.67
2022-12-25T13:37:09.105Z,21.47
2022-12-25T13:39:40.532Z,17.43
2022-12-25T13:42:10.265Z,19.47
2022-12-25T13:44:49.975Z,18.90
2022-12-25T13:47:30.634Z,20.57
2022-12-25T13:50:00.593Z,17.93
2022-12-25T13:52:36.078Z,17.53
2022-12-25T13:55:11.821Z,21.97
2022-12-25T13:57:42.648Z,19.23
2022-12-25T14:00:20.391Z,17.67
2022-12-25T14:02:49.581Z,23.77
2022-12-25T14:05:26.533Z,17.27
2022-12-25T14:07:58.096Z,25.30
2022-12-25T14:10:28.461Z,20.77
2022-12-25T14:13:00.517Z,25.10
2022-12-25T14:15:31.538Z,21.80
2022-12-25T14:17:59.920Z,19.27
2022-12-25T14:20:30.336Z,19.70
2022-12-25T14:23:00.855Z,23.93
2022-12-25T14:25:31.464Z,21.03
2022-12-25T14:28:00.105Z,23.30
2022-12-25T14:30:30.652Z,20.30
2022-12-25T14:32:59.003Z,27.73
2022-12-25T14:35:27.052Z,22.30
2022-12-25T14:38:01.056Z,25.80
2022-12-25T14:40:31.525Z,26.67
2022-12-25T14:43:01.298Z,31.83
2022-12-25T14:45:32.457Z,31.53
2022-12-25T14:48:04.197Z,31.30
2022-12-25T14:50:36.425Z,30.53
2022-12-25T14:53:07.405Z,32.33
2022-12-25T14:55:35.695Z,32.00
2022-12-25T14:58:08.075Z,26.87
2022-12-25T15:00:38.521Z,25.73
2022-12-25T15:03:18.313Z,27.93
2022-12-25T15:05:46.374Z,30.43
2022-12-25T15:08:34.571Z,28.53
2022-12-25T15:11:03.421Z,27.00
2022-12-25T15:13:32.718Z,31.30
2022-12-25T15:16:07.268Z,24.87
2022-12-25T15:18:39.315Z,24.17
2022-12-25T15:21:08.001Z,26.13
2022-12-25T15:23:37.435Z,22.93
2022-12-25T15:26:05.539Z,25.57
2022-12-25T15:28:33.486Z,31.97
2022-12-25T15:31:01.515Z,25.07
2022-12-25T15:33:29.528Z,29.43
2022-12-25T15:35:57.523Z,32.03
2022-12-25T15:38:25.491Z,32.60
2022-12-25T15:40:54.891Z,30.97
2022-12-25T15:43:40.481Z,31.50
2022-12-25T15:46:10.464Z,39.37
2022-12-25T15:48:38.580Z,40.27
2022-12-25T15:51:06.832Z,29.90
2022-12-25T15:53:34.842Z,36.33
2022-12-25T15:56:04.255Z,26.20
2022-12-25T15:58:32.239Z,23.83
2022-12-25T16:01:00.288Z,22.13
2022-12-25T16:03:28.338Z,23.90
2022-12-25T16:05:56.523Z,24.87
2022-12-25T16:08:24.760Z,21.13
2022-12-25T16:10:53.889Z,26.63
2022-12-25T16:13:24.445Z,41.60
2022-12-25T16:15:52.458Z,167.43
2022-12-25T16:18:21.339Z,109.93
2022-12-25T16:20:49.370Z,77.07
2022-12-25T16:23:17.445Z,64.50
2022-12-25T16:25:45.446Z,59.03
2022-12-25T16:28:13.551Z,42.97
2022-12-25T16:30:43.496Z,35.93
2022-12-25T16:33:12.523Z,38.20
2022-12-25T16:35:40.514Z,34.87
2022-12-25T16:38:08.514Z,32.17
2022-12-25T16:40:36.671Z,34.17
2022-12-25T16:43:04.792Z,38.60
2022-12-25T16:45:32.763Z,41.87
2022-12-25T16:48:02.090Z,39.90
2022-12-25T16:50:30.060Z,38.90
2022-12-25T16:52:58.043Z,37.90
2022-12-25T16:55:30.036Z,39.60
2022-12-25T16:57:58.445Z,52.23
2022-12-25T17:00:26.538Z,48.63
2022-12-25T17:02:55.960Z,42.93
2022-12-25T17:05:26.045Z,40.10
2022-12-25T17:07:54.158Z,44.17
2022-12-25T17:10:22.656Z,47.93
2022-12-25T17:12:50.728Z,45.07
2022-12-25T17:15:18.823Z,43.47
2022-12-25T17:17:46.843Z,44.10
2022-12-25T17:20:14.936Z,47.20
2022-12-25T17:22:44.309Z,47.20
2022-12-25T17:25:12.462Z,51.13
2022-12-25T17:27:40.490Z,54.90
2022-12-25T17:30:10.162Z,55.83
2022-12-25T17:32:38.115Z,56.93
2022-12-25T17:35:06.864Z,57.20
2022-12-25T17:37:34.973Z,57.87
2022-12-25T17:40:04.397Z,59.27
2022-12-25T17:42:32.479Z,53.77
2022-12-25T17:45:00.484Z,56.67
2022-12-25T17:47:30.261Z,64.83
2022-12-25T17:49:58.226Z,76.03
2022-12-25T17:52:26.215Z,75.93
2022-12-25T17:54:54.231Z,72.70
2022-12-25T17:57:23.610Z,79.67
2022-12-25T17:59:51.642Z,74.53
2022-12-25T18:02:19.829Z,71.47
2022-12-25T18:04:48.221Z,64.20
2022-12-25T18:07:17.387Z,69.37
2022-12-25T18:09:45.504Z,67.57
2022-12-25T18:12:13.486Z,63.07
2022-12-25T18:14:42.809Z,62.43
2022-12-25T18:17:11.052Z,63.13
2022-12-25T18:19:39.119Z,62.73
2022-12-25T18:22:07.085Z,63.87
2022-12-25T18:24:35.087Z,62.87
2022-12-25T18:27:03.085Z,59.90
2022-12-25T18:29:31.004Z,60.10
2022-12-25T18:32:00.456Z,63.30
2022-12-25T18:34:28.531Z,55.73
2022-12-25T18:37:03.165Z,54.90
2022-12-25T18:39:31.299Z,50.03
2022-12-25T18:42:17.127Z,53.50
2022-12-25T18:44:45.386Z,55.10
2022-12-25T18:47:14.749Z,54.80
2022-12-25T18:49:42.714Z,52.43
2022-12-25T18:52:48.522Z,52.67
2022-12-25T18:54:58.713Z,48.17
2022-12-25T18:57:27.509Z,48.60
2022-12-25T18:59:55.545Z,51.00
2022-12-25T19:02:25.035Z,55.60
2022-12-25T19:04:53.191Z,52.57
2022-12-25T19:07:22.685Z,54.57
2022-12-25T19:09:51.602Z,53.50
2022-12-25T19:12:19.629Z,49.93
2022-12-25T19:14:48.534Z,48.23
2022-12-25T19:17:16.915Z,48.67
2022-12-25T19:19:46.702Z,50.33
2022-12-25T19:22:14.780Z,51.87
2022-12-25T19:24:42.959Z,50.03
2022-12-25T19:27:10.987Z,52.17
2022-12-25T19:29:38.969Z,50.77
2022-12-25T19:32:07.356Z,54.37
2022-12-25T19:34:35.472Z,51.57
2022-12-25T19:37:04.956Z,51.93
2022-12-25T19:39:32.961Z,46.73
2022-12-25T19:42:00.952Z,50.47
2022-12-25T19:44:28.971Z,49.80
2022-12-25T19:46:56.936Z,48.20
2022-12-25T19:49:24.962Z,49.10
2022-12-25T19:51:52.939Z,48.27
2022-12-25T19:54:22.322Z,46.70
2022-12-25T19:56:50.565Z,43.07
2022-12-25T19:59:18.554Z,47.17
2022-12-25T20:01:46.695Z,41.80
2022-12-25T20:04:15.233Z,41.50
2022-12-25T20:06:43.465Z,42.10
2022-12-25T20:09:14.787Z,38.43
2022-12-25T20:11:44.588Z,40.47
2022-12-25T20:14:13.916Z,41.93
2022-12-25T20:16:42.012Z,44.47
2022-12-25T20:19:13.017Z,45.33
2022-12-25T20:21:41.215Z,39.87
2022-12-25T20:24:11.247Z,46.10
2022-12-25T20:26:39.948Z,40.70
2022-12-25T20:29:09.390Z,42.10
2022-12-25T20:31:37.608Z,45.50
2022-12-25T20:34:08.453Z,44.77
2022-12-25T20:36:38.089Z,46.97
2022-12-25T20:39:09.503Z,50.37
2022-12-25T20:41:38.531Z,46.00
2022-12-25T20:44:08.549Z,45.60
2022-12-25T20:46:38.134Z,48.10
2022-12-25T20:49:06.489Z,46.40
2022-12-25T20:51:34.479Z,48.17
2022-12-25T20:54:07.146Z,46.83
2022-12-25T20:56:35.822Z,48.73
2022-12-25T20:59:04.283Z,45.80
2022-12-25T21:01:32.606Z,48.33
2022-12-25T21:04:02.166Z,44.20
2022-12-25T21:06:30.318Z,48.83
2022-12-25T21:08:58.478Z,45.67
2022-12-25T21:11:26.494Z,49.67
2022-12-25T21:13:54.470Z,53.87
2022-12-25T21:16:23.416Z,50.43
2022-12-25T21:18:53.382Z,47.33
2022-12-25T21:21:23.305Z,50.63
2022-12-25T21:23:51.636Z,52.73
2022-12-25T21:26:21.897Z,51.93
2022-12-25T21:28:51.614Z,52.63
2022-12-25T21:31:20.479Z,52.20
2022-12-25T21:33:53.989Z,55.57
2022-12-25T21:36:27.189Z,56.27
2022-12-25T21:38:57.872Z,54.40
2022-12-25T21:41:26.751Z,52.67
2022-12-25T21:43:55.154Z,60.20
2022-12-25T21:46:23.622Z,53.60
2022-12-25T21:48:51.735Z,59.30
2022-12-25T21:51:39.709Z,53.93
2022-12-25T21:54:10.102Z,50.73
2022-12-25T21:56:43.904Z,51.87
2022-12-25T21:59:15.555Z,50.93
2022-12-25T22:01:44.304Z,51.70
2022-12-25T22:04:13.456Z,48.83
2022-12-25T22:06:58.971Z,52.93
2022-12-25T22:09:28.615Z,54.20
2022-12-25T22:12:14.586Z,53.00
2022-12-25T22:14:56.180Z,53.03
2022-12-25T22:17:44.478Z,52.47
2022-12-25T22:20:15.515Z,54.00
2022-12-25T22:22:44.064Z,55.17
2022-12-25T22:25:14.218Z,53.77
2022-12-25T22:27:43.501Z,52.43
2022-12-25T22:30:13.659Z,52.63
2022-12-25T22:32:41.963Z,53.37
2022-12-25T22:35:12.240Z,47.67
2022-12-25T22:37:41.022Z,58.20
2022-12-25T22:40:10.681Z,59.10
2022-12-25T22:42:40.170Z,53.47
2022-12-25T22:45:09.273Z,51.67
2022-12-25T22:47:37.296Z,50.07
2022-12-25T22:50:05.719Z,47.10
2022-12-25T22:52:33.720Z,53.57
2022-12-25T22:55:02.564Z,47.03
2022-12-25T22:57:30.601Z,54.80
2022-12-25T23:00:00.070Z,50.67
2022-12-25T23:02:28.274Z,49.73
2022-12-25T23:04:56.424Z,49.07
2022-12-25T23:07:24.421Z,44.33
2022-12-25T23:09:52.447Z,50.40
2022-12-25T23:12:37.919Z,50.93
2022-12-25T23:15:08.668Z,46.77
2022-12-25T23:17:54.007Z,48.93
2022-12-25T23:20:39.934Z,45.67
2022-12-25T23:23:25.547Z,48.27
2022-12-25T23:26:08.679Z,46.97
2022-12-25T23:28:55.111Z,42.13
2022-12-25T23:31:29.600Z,46.07
2022-12-25T23:33:58.341Z,45.03
2022-12-25T23:36:26.398Z,40.90
2022-12-25T23:38:54.360Z,42.77
2022-12-25T23:41:22.369Z,41.37
2022-12-25T23:43:50.495Z,40.63
2022-12-25T23:46:18.990Z,40.67
2022-12-25T23:48:48.597Z,45.00
2022-12-25T23:51:16.588Z,40.93
2022-12-25T23:53:44.581Z,41.10
2022-12-25T23:56:13.367Z,43.23
2022-12-25T23:58:41.769Z,42.07
